Time;durP1;ratioP1;P1;durP2;ratioP2;P2;SDS_P1;SDS_P2;PMS_P1;PMS_P2;Temp;Humidity;BMP_temperature;BMP_pressure;BME280_temperature;BME280_humidity;BME280_pressure;Samples;Min_cycle;Max_cycle;Signal;HPM_P1;HPM_P2
2023/05/02 00:00:07;;;;;;;;;9.25;8.00;;;;;20.32;40.89;101527.31;5078237;27;67928;-72
2023/05/02 00:02:33;;;;;;;;;13.25;11.50;;;;;20.35;40.75;101535.97;5076823;27;45288;-72
2023/05/02 00:04:58;;;;;;;;;11.50;9.25;;;;;20.35;40.74;101537.78;5078074;27;46069;-72
2023/05/02 00:07:24;;;;;;;;;12.25;8.00;;;;;20.35;40.69;101532.47;5069540;27;69345;-72
2023/05/02 00:09:49;;;;;;;;;9.00;9.00;;;;;20.35;41.03;101532.47;5066492;28;46366;-72
2023/05/02 00:12:14;;;;;;;;;9.00;7.75;;;;;20.34;40.92;101531.56;5071497;27;64016;-72
2023/05/02 00:14:40;;;;;;;;;8.75;8.75;;;;;20.35;40.75;101527.13;5078396;27;67388;-72
2023/05/02 00:17:05;;;;;;;;;11.25;8.75;;;;;20.33;41.05;101529.88;5075365;27;45445;-72
2023/05/02 00:19:30;;;;;;;;;14.00;9.75;;;;;20.36;40.57;101534.16;5071703;27;71077;-72
2023/05/02 00:21:56;;;;;;;;;11.75;10.00;;;;;20.34;40.78;101531.56;5071516;28;71469;-72
2023/05/02 00:24:21;;;;;;;;;9.25;8.50;;;;;20.32;40.96;101528.16;5079912;27;45392;-71
2023/05/02 00:26:47;;;;;;;;;8.75;5.75;;;;;20.33;40.58;101523.69;5073489;27;70540;-72
2023/05/02 00:29:12;;;;;;;;;10.25;7.75;;;;;20.33;40.55;101527.22;5073555;27;45413;-72
2023/05/02 00:31:40;;;;;;;;;7.50;7.50;;;;;20.34;40.98;101528.06;5077055;27;45485;-72
2023/05/02 00:34:05;;;;;;;;;11.50;8.00;;;;;20.33;40.78;101527.22;5071110;27;45473;-72
2023/05/02 00:36:31;;;;;;;;;10.50;9.00;;;;;20.35;40.77;101524.47;5074753;28;45521;-72
2023/05/02 00:38:56;;;;;;;;;10.50;8.75;;;;;20.34;40.94;101522.75;5072483;27;46019;-72
2023/05/02 00:41:21;;;;;;;;;9.00;7.75;;;;;20.33;40.68;101513.94;5059153;28;71651;-72
2023/05/02 00:43:47;;;;;;;;;9.00;7.75;;;;;20.32;40.98;101522.84;5080525;27;53651;-72
2023/05/02 00:46:12;;;;;;;;;9.50;8.00;;;;;20.34;40.69;101520.09;5056021;28;66175;-72
2023/05/02 00:48:37;;;;;;;;;9.25;7.50;;;;;20.32;40.91;101522.84;5047001;28;47051;-72
2023/05/02 00:51:04;;;;;;;;;15.00;8.50;;;;;20.33;40.97;101521.91;5075411;28;62564;-72
2023/05/02 00:53:30;;;;;;;;;10.50;7.75;;;;;20.32;40.97;101525.50;5079372;27;45279;-71
2023/05/02 00:55:57;;;;;;;;;8.00;7.00;;;;;20.31;41.07;101521.13;5055480;28;45966;-72
2023/05/02 00:58:23;;;;;;;;;9.00;7.25;;;;;20.33;40.75;101529.00;5078663;27;46293;-72
2023/05/02 01:01:21;;;;;;;;;7.00;6.00;;;;;20.32;40.73;101530.81;5074594;27;45792;-72
2023/05/02 01:03:55;;;;;;;;;8.75;8.75;;;;;20.32;40.83;101530.81;5078551;27;45442;-72
2023/05/02 01:06:36;;;;;;;;;8.25;6.25;;;;;20.32;40.60;101529.97;5070160;28;45480;-72
2023/05/02 01:09:10;;;;;;;;;6.50;6.50;;;;;20.32;40.94;101525.50;5051460;28;46649;-72
2023/05/02 01:12:05;;;;;;;;;7.25;7.25;;;;;20.31;40.98;101529.09;5071611;27;45469;-72
2023/05/02 01:14:35;;;;;;;;;8.50;8.00;;;;;20.31;40.91;101523.78;5052756;28;45550;-72
2023/05/02 01:17:07;;;;;;;;;8.00;8.00;;;;;20.30;40.72;101525.56;5054873;28;46614;-72
2023/05/02 01:19:35;;;;;;;;;8.50;6.25;;;;;20.31;41.11;101529.09;5061793;27;47285;-72
2023/05/02 01:22:02;;;;;;;;;9.75;7.00;;;;;20.29;40.65;101528.31;5073573;27;45339;-72
2023/05/02 01:24:33;;;;;;;;;7.75;6.50;;;;;20.29;40.76;101531.84;5078899;27;45267;-72
2023/05/02 01:27:27;;;;;;;;;13.75;7.25;;;;;20.28;41.24;101535.44;5050273;28;45481;-72
2023/05/02 01:29:53;;;;;;;;;6.75;5.50;;;;;20.29;41.04;101531.84;5047528;28;47368;-72
2023/05/02 01:32:20;;;;;;;;;9.00;7.00;;;;;20.29;41.02;101528.31;5074667;28;53666;-72
2023/05/02 01:34:46;;;;;;;;;8.75;7.75;;;;;20.29;40.62;101528.31;5057977;28;45265;-72
2023/05/02 01:37:12;;;;;;;;;7.00;7.00;;;;;20.29;40.62;101533.63;5066696;27;45425;-72
2023/05/02 01:39:39;;;;;;;;;5.50;5.50;;;;;20.27;40.93;101531.09;5077753;28;63242;-72
2023/05/02 01:42:04;;;;;;;;;9.75;7.50;;;;;20.28;41.22;101532.78;5068260;27;45268;-72
2023/05/02 01:44:32;;;;;;;;;8.50;6.25;;;;;20.29;40.65;101537.16;5076796;28;45189;-72
2023/05/02 01:46:59;;;;;;;;;6.50;6.50;;;;;20.27;40.78;101536.41;5075868;27;45491;-72
2023/05/02 01:49:26;;;;;;;;;5.50;5.50;;;;;20.29;40.69;101538.94;5076274;27;63524;-72
2023/05/02 01:51:51;;;;;;;;;9.50;7.50;;;;;20.27;41.25;101539.06;5073099;28;45869;-72
2023/05/02 01:54:19;;;;;;;;;5.75;5.00;;;;;20.27;40.93;101536.41;5050232;28;46447;-72
2023/05/02 01:56:45;;;;;;;;;6.00;6.00;;;;;20.27;40.86;101536.41;5073114;28;45531;-72
2023/05/02 01:59:13;;;;;;;;;8.25;7.50;;;;;20.27;40.62;101539.06;5076881;27;46337;-72
2023/05/02 02:01:39;;;;;;;;;5.00;4.75;;;;;20.28;40.84;101534.59;5048908;28;45340;-72
2023/05/02 02:04:07;;;;;;;;;5.50;4.75;;;;;20.25;40.77;101530.28;5077757;27;45439;-72
2023/05/02 02:06:33;;;;;;;;;7.00;5.75;;;;;20.28;41.23;101531.94;5074436;28;45362;-72
2023/05/02 02:08:58;;;;;;;;;9.25;6.00;;;;;20.26;40.87;101529.34;5072080;28;45271;-72
2023/05/02 02:11:28;;;;;;;;;4.50;4.50;;;;;20.25;41.18;101532.94;5063904;28;45216;-72
2023/05/02 02:14:16;;;;;;;;;6.25;5.00;;;;;20.27;41.05;101531.09;5077885;28;45413;-72
2023/05/02 02:16:42;;;;;;;;;7.25;5.00;;;;;20.26;41.27;101531.16;5074356;27;45528;-72
2023/05/02 02:19:09;;;;;;;;;7.75;7.00;;;;;20.27;40.77;101535.50;5076840;28;69760;-72
2023/05/02 02:21:37;;;;;;;;;6.00;5.50;;;;;20.25;41.20;101542.72;5077180;27;45749;-72
2023/05/02 02:24:04;;;;;;;;;7.25;6.00;;;;;20.27;40.85;101540.84;5078278;28;45323;-72
2023/05/02 02:26:29;;;;;;;;;8.00;7.00;;;;;20.24;40.64;101544.53;5072568;27;45506;-72
2023/05/02 02:28:55;;;;;;;;;6.25;6.25;;;;;20.26;40.84;101553.28;5078259;28;45406;-72
2023/05/02 02:31:20;;;;;;;;;5.50;5.00;;;;;20.24;41.27;101547.19;5071222;28;45254;-72
2023/05/02 02:33:46;;;;;;;;;7.00;6.00;;;;;20.25;41.08;101548.88;5078135;27;45261;-72
2023/05/02 02:36:20;;;;;;;;;6.50;5.00;;;;;20.25;41.02;101551.53;5071221;27;45321;-72
2023/05/02 02:39:08;;;;;;;;;7.25;5.75;;;;;20.24;40.97;101543.69;5079418;27;46301;-72
2023/05/02 02:41:48;;;;;;;;;7.25;4.75;;;;;20.24;40.86;101547.19;5069070;28;46040;-72
2023/05/02 02:44:32;;;;;;;;;6.00;5.00;;;;;20.25;40.87;101550.69;5074895;27;45520;-72
2023/05/02 02:47:08;;;;;;;;;8.00;4.75;;;;;20.25;40.81;101556.00;5072217;28;45708;-72
2023/05/02 02:49:58;;;;;;;;;6.75;6.50;;;;;20.24;40.73;101568.44;5069055;27;45674;-72
2023/05/02 02:52:43;;;;;;;;;8.50;6.50;;;;;20.23;41.06;101566.72;5077383;28;45154;-72
2023/05/02 02:55:19;;;;;;;;;7.00;7.00;;;;;20.24;41.15;101570.25;5052580;28;45937;-72
2023/05/02 02:57:58;;;;;;;;;5.75;5.00;;;;;20.22;40.96;101562.38;5072163;28;45302;-72
2023/05/02 03:00:24;;;;;;;;;7.00;5.50;;;;;20.22;41.21;101562.38;5077336;27;45559;-72
2023/05/02 03:02:52;;;;;;;;;7.50;5.00;;;;;20.23;40.92;101563.22;5068927;27;45621;-72
2023/05/02 03:05:18;;;;;;;;;6.00;5.00;;;;;20.22;40.85;101562.38;5066689;27;45303;-72
2023/05/02 03:07:43;;;;;;;;;7.00;5.00;;;;;20.22;40.86;101565.03;5080028;27;69983;-72
2023/05/02 03:10:10;;;;;;;;;6.00;5.75;;;;;20.23;40.80;101563.22;5078019;28;67204;-72
2023/05/02 03:12:36;;;;;;;;;5.75;5.50;;;;;20.24;40.77;101562.28;5060318;28;45975;-72
2023/05/02 03:15:23;;;;;;;;;5.25;5.25;;;;;20.24;41.13;101554.31;5076500;27;45410;-72
2023/05/02 03:17:48;;;;;;;;;6.50;6.50;;;;;20.22;40.71;101557.06;5080770;28;45923;-72
2023/05/02 03:20:14;;;;;;;;;6.00;4.00;;;;;20.22;40.82;101558.81;5078228;27;62237;-72
2023/05/02 03:22:39;;;;;;;;;7.00;5.00;;;;;20.21;40.95;101559.78;5061534;28;49713;-72
2023/05/02 03:25:05;;;;;;;;;4.25;4.25;;;;;20.20;41.15;101561.59;5079849;27;45490;-72
2023/05/02 03:27:30;;;;;;;;;6.25;4.00;;;;;20.18;40.79;101567.91;5077408;27;45501;-72
2023/05/02 03:29:56;;;;;;;;;6.00;5.00;;;;;20.22;41.10;101566.81;5078656;27;46981;-72
2023/05/02 03:32:21;;;;;;;;;5.75;5.00;;;;;20.21;40.85;101568.59;5080429;27;45350;-72
2023/05/02 03:34:47;;;;;;;;;4.50;4.00;;;;;20.21;41.22;101567.75;5062003;28;61730;-72
2023/05/02 03:37:12;;;;;;;;;6.25;6.25;;;;;20.23;41.16;101571.19;5073537;27;45564;-72
2023/05/02 03:39:37;;;;;;;;;6.25;5.25;;;;;20.21;40.95;101570.41;5080774;27;70602;-72
2023/05/02 03:42:04;;;;;;;;;7.00;6.00;;;;;20.21;40.88;101571.25;5075098;27;45201;-72
2023/05/02 03:44:29;;;;;;;;;6.75;4.00;;;;;20.20;40.94;101566.91;5080725;27;46098;-72
2023/05/02 03:46:55;;;;;;;;;5.50;4.75;;;;;20.21;41.03;101573.06;5076497;27;45354;-72
2023/05/02 03:49:20;;;;;;;;;7.50;5.00;;;;;20.20;40.74;101572.22;5079378;27;70404;-72
2023/05/02 03:51:46;;;;;;;;;6.75;5.00;;;;;20.21;41.26;101573.06;5077792;27;45688;-72
2023/05/02 03:54:11;;;;;;;;;7.00;5.00;;;;;20.22;41.12;101574.78;5080149;27;45684;-72
2023/05/02 03:56:37;;;;;;;;;5.75;5.00;;;;;20.21;41.19;101578.38;5074956;27;64333;-72
2023/05/02 03:59:02;;;;;;;;;5.50;5.00;;;;;20.22;40.95;101577.44;5075875;27;46239;-72
2023/05/02 04:01:28;;;;;;;;;7.25;5.00;;;;;20.21;40.73;101579.25;5075230;27;45696;-72
2023/05/02 04:03:53;;;;;;;;;5.50;4.75;;;;;20.20;41.14;101574.88;5079769;27;55647;-72
2023/05/02 04:06:19;;;;;;;;;8.75;6.75;;;;;20.20;40.84;101576.66;5079118;27;45326;-72
2023/05/02 04:08:44;;;;;;;;;9.50;5.75;;;;;20.22;41.02;101574.78;5057071;28;47504;-72
2023/05/02 04:11:09;;;;;;;;;7.00;6.00;;;;;20.22;40.89;101577.44;5075285;28;45404;-72
2023/05/02 04:13:35;;;;;;;;;6.00;6.00;;;;;20.20;40.71;101572.22;5081160;27;45319;-72
2023/05/02 04:16:00;;;;;;;;;6.00;5.75;;;;;20.22;40.96;101574.78;5073859;27;53370;-71
2023/05/02 04:18:25;;;;;;;;;6.50;5.75;;;;;20.21;41.04;101573.06;5078842;27;46224;-72
2023/05/02 04:20:51;;;;;;;;;9.00;5.25;;;;;20.20;41.14;101574.00;5078858;27;45299;-71
2023/05/02 04:23:16;;;;;;;;;5.25;4.50;;;;;20.20;40.66;101576.66;5080029;27;45356;-72
2023/05/02 04:25:53;;;;;;;;;5.50;5.50;;;;;20.21;41.03;101584.56;5077869;27;45512;-72
2023/05/02 04:28:20;;;;;;;;;6.00;5.00;;;;;20.21;41.04;101591.69;5079909;27;46531;-72
2023/05/02 04:30:45;;;;;;;;;7.00;5.50;;;;;20.21;41.22;101599.66;5054593;28;45412;-72
2023/05/02 04:33:11;;;;;;;;;6.00;5.00;;;;;20.20;40.64;101601.47;5080029;27;62566;-72
2023/05/02 04:35:39;;;;;;;;;7.50;6.00;;;;;20.18;40.84;101600.66;5079127;27;45568;-72
2023/05/02 04:38:04;;;;;;;;;5.75;4.75;;;;;20.19;40.65;101607.72;5072698;27;45523;-72
2023/05/02 04:40:30;;;;;;;;;5.50;5.50;;;;;20.20;41.10;101608.56;5071178;27;60004;-72
2023/05/02 04:42:55;;;;;;;;;8.00;4.00;;;;;20.18;40.81;101611.28;5053937;28;61691;-72
2023/05/02 04:45:20;;;;;;;;;6.50;5.00;;;;;20.20;40.84;101617.41;5072539;28;70257;-72
2023/05/02 04:47:45;;;;;;;;;7.50;6.00;;;;;20.20;40.65;101627.16;5074475;27;45369;-72
2023/05/02 04:50:11;;;;;;;;;6.25;5.00;;;;;20.19;41.15;101626.31;5069259;28;71281;-72
2023/05/02 04:52:36;;;;;;;;;4.25;4.00;;;;;20.17;40.97;101630.84;5074360;27;63055;-72
2023/05/02 04:55:01;;;;;;;;;5.25;5.25;;;;;20.18;41.12;101619.25;5063111;28;61427;-72
2023/05/02 04:57:27;;;;;;;;;4.75;4.00;;;;;20.18;41.19;101621.91;5075861;27;46523;-72
2023/05/02 04:59:52;;;;;;;;;8.25;6.00;;;;;20.18;40.56;101637.03;5069686;27;56517;-72
2023/05/02 05:02:17;;;;;;;;;6.25;6.00;;;;;20.18;40.85;101634.34;5068941;27;53046;-72
2023/05/02 05:04:44;;;;;;;;;7.25;5.25;;;;;20.19;40.83;101638.75;5060020;28;45467;-72
2023/05/02 05:07:09;;;;;;;;;8.00;5.00;;;;;20.18;41.01;101631.69;5078679;27;45432;-72
2023/05/02 05:09:35;;;;;;;;;8.25;6.00;;;;;20.18;40.81;101626.38;5068022;28;71750;-72
2023/05/02 05:12:00;;;;;;;;;5.00;4.00;;;;;20.18;40.81;101629.91;5069235;27;45330;-72
2023/05/02 05:14:26;;;;;;;;;5.25;4.50;;;;;20.18;40.96;101634.34;5080439;27;45461;-72
2023/05/02 05:16:51;;;;;;;;;5.25;5.00;;;;;20.18;40.73;101642.34;5071592;27;47632;-72
2023/05/02 05:19:17;;;;;;;;;7.75;5.00;;;;;20.17;40.96;101644.16;5052178;28;45399;-72
2023/05/02 05:21:42;;;;;;;;;6.25;4.00;;;;;20.18;40.96;101648.50;5069918;28;45417;-72
2023/05/02 05:24:07;;;;;;;;;5.25;5.00;;;;;20.18;40.85;101655.63;5075926;28;68592;-72
2023/05/02 05:26:33;;;;;;;;;3.50;3.50;;;;;20.16;41.09;101661.00;5055628;28;46875;-71
2023/05/02 05:28:58;;;;;;;;;4.75;3.75;;;;;20.17;40.67;101665.41;5075616;28;72270;-72
2023/05/02 05:31:24;;;;;;;;;7.75;6.00;;;;;20.16;40.76;101666.34;5072046;27;45361;-72
2023/05/02 05:33:49;;;;;;;;;6.25;5.25;;;;;20.17;40.90;101662.75;5077763;27;45327;-72
2023/05/02 05:36:14;;;;;;;;;6.00;6.00;;;;;20.16;40.81;101660.16;5072530;27;68852;-72
2023/05/02 05:38:40;;;;;;;;;7.50;6.00;;;;;20.18;40.92;101674.22;5060060;28;45342;-72
2023/05/02 05:41:06;;;;;;;;;4.25;4.00;;;;;20.18;40.84;101674.22;5073540;27;45367;-72
2023/05/02 05:43:32;;;;;;;;;5.25;5.00;;;;;20.17;40.73;101678.69;5076886;27;45481;-72
2023/05/02 05:45:57;;;;;;;;;5.00;5.00;;;;;20.17;40.69;101681.34;5075704;28;45327;-72
2023/05/02 05:48:22;;;;;;;;;10.25;6.75;;;;;20.16;41.12;101684.94;5077480;28;68300;-72
2023/05/02 05:50:48;;;;;;;;;6.50;5.50;;;;;20.16;41.10;101684.94;5075737;28;45234;-72
2023/05/02 05:53:13;;;;;;;;;6.75;5.00;;;;;20.17;41.10;101693.75;5076170;28;45517;-71
2023/05/02 05:55:39;;;;;;;;;8.00;5.00;;;;;20.17;40.95;101681.34;5073431;28;61109;-72
2023/05/02 05:58:05;;;;;;;;;5.00;5.00;;;;;20.17;40.82;101691.09;5076238;27;45344;-72
2023/05/02 06:00:34;;;;;;;;;6.75;6.00;;;;;20.16;40.73;101692.06;5059257;28;45444;-72
2023/05/02 06:03:00;;;;;;;;;5.75;5.75;;;;;20.17;41.16;101699.06;5075026;28;45252;-72
2023/05/02 06:05:25;;;;;;;;;6.50;5.75;;;;;20.16;40.98;101695.56;5079808;27;45413;-72
2023/05/02 06:07:51;;;;;;;;;6.50;5.00;;;;;20.16;40.93;101700.88;5075202;28;45346;-72
2023/05/02 06:10:16;;;;;;;;;8.75;7.00;;;;;20.16;40.76;101702.69;5074323;27;56241;-72
2023/05/02 06:12:41;;;;;;;;;7.25;5.75;;;;;20.15;41.08;101715.13;5075084;28;45311;-72
2023/05/02 06:15:07;;;;;;;;;6.75;6.00;;;;;20.15;40.85;101712.47;5074782;28;71212;-72
2023/05/02 06:17:32;;;;;;;;;7.25;6.25;;;;;20.16;41.05;101708.00;5070782;27;45451;-72
2023/05/02 06:19:58;;;;;;;;;7.00;5.75;;;;;20.15;40.99;101708.94;5074469;27;58653;-72
2023/05/02 06:22:23;;;;;;;;;4.50;4.50;;;;;20.16;40.96;101715.97;5078156;28;45232;-72
2023/05/02 06:24:48;;;;;;;;;5.00;4.25;;;;;20.16;40.91;101721.28;5076079;27;72049;-72
2023/05/02 06:27:13;;;;;;;;;7.00;6.00;;;;;20.16;41.57;101721.28;5074882;27;66627;-72
2023/05/02 06:29:39;;;;;;;;;6.50;6.00;;;;;20.15;41.11;101719.56;5077704;28;57202;-72
2023/05/02 06:32:05;;;;;;;;;6.50;6.50;;;;;20.17;41.18;101728.31;5075578;27;71745;-72
2023/05/02 06:34:32;;;;;;;;;7.00;6.00;;;;;20.16;40.94;101724.81;5061589;27;48251;-72
2023/05/02 06:36:57;;;;;;;;;7.75;6.75;;;;;20.15;41.18;101728.41;5076160;27;45790;-72
2023/05/02 06:39:22;;;;;;;;;7.25;6.00;;;;;20.16;40.78;101734.59;5080876;27;59286;-72
2023/05/02 06:41:48;;;;;;;;;7.50;6.25;;;;;20.15;40.76;101732.84;5080268;27;55567;-72
2023/05/02 06:44:13;;;;;;;;;8.50;5.75;;;;;20.15;40.95;101746.13;5080662;28;71122;-72
2023/05/02 06:46:38;;;;;;;;;9.00;6.75;;;;;20.10;41.09;101725.13;5076373;27;66064;-72
2023/05/02 06:49:04;;;;;;;;;6.50;6.50;;;;;20.15;41.02;101743.47;5074529;27;45525;-72
2023/05/02 06:51:30;;;;;;;;;7.50;6.50;;;;;20.14;40.84;101745.28;5075725;28;45430;-72
2023/05/02 06:53:55;;;;;;;;;6.50;5.00;;;;;20.15;40.86;101752.34;5080971;27;47200;-72
2023/05/02 06:56:21;;;;;;;;;6.50;6.50;;;;;20.14;40.99;101753.25;5057422;28;70693;-72
2023/05/02 06:58:46;;;;;;;;;7.00;7.00;;;;;20.15;40.68;101749.69;5082005;27;45259;-72
2023/05/02 07:01:12;;;;;;;;;8.75;7.25;;;;;20.15;40.99;101740.81;5077494;27;45500;-72
2023/05/02 07:03:37;;;;;;;;;8.50;6.00;;;;;20.16;40.98;101745.22;5073927;27;55208;-71
2023/05/02 07:06:02;;;;;;;;;8.00;8.00;;;;;20.15;41.13;101746.13;5075249;27;59438;-72
2023/05/02 07:08:28;;;;;;;;;7.25;7.00;;;;;20.15;40.99;101751.44;5075593;27;46008;-72
2023/05/02 07:10:53;;;;;;;;;9.50;7.00;;;;;20.16;41.13;101754.03;5070975;27;52228;-71
2023/05/02 07:13:18;;;;;;;;;9.00;6.50;;;;;20.16;40.63;101745.22;5080197;27;75481;-72
2023/05/02 07:15:44;;;;;;;;;6.50;6.50;;;;;20.14;41.34;101747.09;5079704;27;52179;-72
2023/05/02 07:18:09;;;;;;;;;6.25;6.25;;;;;20.16;41.18;101751.38;5079709;27;45983;-72
2023/05/02 07:20:34;;;;;;;;;8.75;6.00;;;;;20.16;41.28;101750.53;5074605;27;65983;-72
2023/05/02 07:23:00;;;;;;;;;8.00;6.75;;;;;20.16;40.97;101755.84;5077708;27;45395;-72
2023/05/02 07:25:26;;;;;;;;;5.25;5.25;;;;;20.15;41.16;101747.03;5075808;27;61810;-72
2023/05/02 07:27:51;;;;;;;;;5.25;5.25;;;;;20.14;41.08;101745.28;5079113;28;45539;-72
2023/05/02 07:30:16;;;;;;;;;7.75;6.50;;;;;20.14;40.86;101745.28;5071271;28;45812;-72
2023/05/02 07:32:42;;;;;;;;;5.75;4.25;;;;;20.16;40.75;101742.56;5062890;28;48304;-72
2023/05/02 07:35:08;;;;;;;;;7.75;6.25;;;;;20.17;41.04;101749.56;5079072;27;73438;-72
2023/05/02 07:37:36;;;;;;;;;8.00;7.00;;;;;20.15;40.92;101748.78;5080308;27;45343;-72
2023/05/02 07:40:02;;;;;;;;;6.00;5.00;;;;;20.16;41.22;101755.84;5055876;27;45458;-72
2023/05/02 07:42:29;;;;;;;;;6.75;6.00;;;;;20.16;41.36;101751.38;5079573;27;46189;-71
2023/05/02 07:44:54;;;;;;;;;5.00;5.00;;;;;20.15;41.23;101759.44;5079712;27;45293;-72
2023/05/02 07:47:20;;;;;;;;;8.75;6.75;;;;;20.14;41.31;101761.22;5079411;27;64917;-72
2023/05/02 07:49:50;;;;;;;;;6.25;5.25;;;;;20.16;41.15;101767.31;5080029;27;45418;-72
2023/05/02 07:52:15;;;;;;;;;7.50;7.00;;;;;20.17;40.85;101778.81;5072939;27;45736;-72
2023/05/02 07:54:41;;;;;;;;;8.00;5.50;;;;;20.16;41.06;101777.09;5071603;28;65279;-72
2023/05/02 07:57:07;;;;;;;;;6.25;5.25;;;;;20.15;40.93;101770.94;5078837;27;45482;-72
2023/05/02 07:59:32;;;;;;;;;7.00;5.25;;;;;20.16;41.21;101777.94;5064454;28;45435;-72
2023/05/02 08:01:58;;;;;;;;;6.50;6.50;;;;;20.17;41.15;101778.81;5071079;27;47346;-72
2023/05/02 08:04:23;;;;;;;;;8.00;5.75;;;;;20.17;40.84;101781.47;5071842;28;45301;-72
2023/05/02 08:06:49;;;;;;;;;8.25;6.00;;;;;20.16;41.20;101785.94;5071658;27;45363;-72
2023/05/02 08:09:14;;;;;;;;;7.00;7.00;;;;;20.17;40.98;101792.09;5072189;27;63939;-72
2023/05/02 08:11:39;;;;;;;;;8.75;4.75;;;;;20.16;40.94;101791.25;5053903;28;46052;-72
2023/05/02 08:14:05;;;;;;;;;6.25;6.25;;;;;20.17;41.17;101795.63;5072937;27;70045;-72
2023/05/02 08:16:30;;;;;;;;;6.25;4.75;;;;;20.16;41.36;101801.03;5075554;27;45229;-72
2023/05/02 08:18:55;;;;;;;;;7.50;6.25;;;;;20.18;41.43;101793.84;5079320;28;66046;-72
2023/05/02 08:21:22;;;;;;;;;8.75;6.00;;;;;20.18;40.97;101807.13;5074631;27;45528;-72
2023/05/02 08:23:47;;;;;;;;;7.00;5.25;;;;;20.17;41.44;101808.03;5079058;27;64825;-71
2023/05/02 08:26:13;;;;;;;;;7.00;6.00;;;;;20.16;40.88;101801.03;5072439;27;45426;-72
2023/05/02 08:28:39;;;;;;;;;5.00;5.00;;;;;20.17;41.03;101803.59;5067737;27;45382;-72
2023/05/02 08:31:04;;;;;;;;;7.00;5.75;;;;;20.18;41.15;101800.00;5056075;27;47708;-71
2023/05/02 08:33:29;;;;;;;;;6.25;6.00;;;;;20.17;41.00;101795.63;5066386;28;45315;-71
2023/05/02 08:35:55;;;;;;;;;5.50;5.00;;;;;20.17;41.20;101792.09;5059405;28;68548;-72
2023/05/02 08:38:20;;;;;;;;;7.00;5.50;;;;;20.18;40.92;101797.34;5072070;28;45418;-72
2023/05/02 08:40:46;;;;;;;;;8.00;7.00;;;;;20.19;41.21;101803.53;5075983;27;64899;-72
2023/05/02 08:43:11;;;;;;;;;4.00;4.00;;;;;20.19;40.97;101806.19;5079503;28;45363;-72
2023/05/02 08:45:42;;;;;;;;;8.00;7.00;;;;;20.18;41.35;101815.09;5078455;27;45519;-72
2023/05/02 08:48:12;;;;;;;;;7.00;5.25;;;;;20.19;41.16;101824.81;5079470;28;45356;-71
2023/05/02 08:50:44;;;;;;;;;7.00;5.25;;;;;20.18;41.11;101829.22;5055019;28;47347;-71
2023/05/02 08:53:10;;;;;;;;;6.50;5.50;;;;;20.19;41.26;101835.44;5055119;28;45901;-72
2023/05/02 08:55:40;;;;;;;;;7.00;6.00;;;;;20.18;41.08;101836.34;5056792;28;45457;-72
2023/05/02 08:58:07;;;;;;;;;10.00;5.75;;;;;20.18;41.14;101839.00;5078204;27;45232;-72
2023/05/02 09:00:38;;;;;;;;;9.25;6.00;;;;;20.19;40.88;101838.94;5055054;28;48446;-72
2023/05/02 09:03:10;;;;;;;;;7.75;7.00;;;;;20.20;40.97;101847.75;5072118;27;45270;-72
2023/05/02 09:05:39;;;;;;;;;6.00;6.00;;;;;20.18;41.08;101844.31;5073666;27;45537;-72
2023/05/02 09:08:05;;;;;;;;;8.25;5.75;;;;;20.18;40.67;101850.50;5077426;28;45322;-72
2023/05/02 09:10:34;;;;;;;;;7.50;5.00;;;;;20.19;40.99;101846.91;5074441;27;74930;-72
2023/05/02 09:13:32;;;;;;;;;8.25;6.75;;;;;20.19;41.03;101840.75;5079150;27;45471;-72
2023/05/02 09:16:10;;;;;;;;;8.50;6.75;;;;;20.20;40.80;101847.75;5059107;28;45645;-72
2023/05/02 09:18:40;;;;;;;;;6.50;4.75;;;;;20.20;41.30;101856.63;5078978;28;45398;-71
2023/05/02 09:21:27;;;;;;;;;7.00;6.00;;;;;20.21;40.74;101858.31;5075801;28;45324;-71
2023/05/02 09:23:54;;;;;;;;;6.50;5.00;;;;;20.21;41.30;101862.78;5075871;27;45528;-72
2023/05/02 09:26:26;;;;;;;;;8.00;6.00;;;;;20.21;41.46;101866.31;5057351;27;45182;-72
2023/05/02 09:28:53;;;;;;;;;10.50;7.25;;;;;20.22;40.94;101870.69;5078106;27;45773;-72
2023/05/02 09:31:20;;;;;;;;;12.00;7.75;;;;;20.23;40.92;101871.53;5073064;28;46318;-72
2023/05/02 09:33:46;;;;;;;;;8.00;7.00;;;;;20.22;40.82;101868.03;5075011;28;45237;-72
2023/05/02 09:36:14;;;;;;;;;8.25;6.50;;;;;20.23;41.19;101863.56;5073060;27;45426;-72
2023/05/02 09:38:41;;;;;;;;;7.50;6.75;;;;;20.22;40.78;101865.38;5078305;28;45488;-72
2023/05/02 09:41:07;;;;;;;;;8.50;7.25;;;;;20.24;40.86;101870.63;5073862;27;45359;-72
2023/05/02 09:43:32;;;;;;;;;9.50;7.75;;;;;20.23;41.25;101863.56;5085960;27;45435;-72
2023/05/02 09:46:00;;;;;;;;;9.75;8.00;;;;;20.25;41.34;101880.28;5076666;27;45298;-72
2023/05/02 09:48:30;;;;;;;;;8.75;8.00;;;;;20.24;41.07;101875.94;5078593;27;45517;-72
2023/05/02 09:50:56;;;;;;;;;9.75;8.00;;;;;20.25;41.23;101877.63;5087406;27;45548;-72
2023/05/02 09:53:24;;;;;;;;;10.50;8.75;;;;;20.24;41.07;101870.63;5076375;28;45350;-72
2023/05/02 09:56:04;;;;;;;;;16.25;12.00;;;;;20.25;41.16;101873.19;5055075;28;45478;-72
2023/05/02 09:58:30;;;;;;;;;9.75;9.00;;;;;20.23;40.87;101869.72;5077371;27;45374;-72
2023/05/02 10:00:56;;;;;;;;;13.25;12.75;;;;;20.24;41.00;101870.63;5075937;27;47216;-72
2023/05/02 10:03:23;;;;;;;;;15.00;11.25;;;;;20.25;40.87;101872.31;5078489;28;45255;-72
2023/05/02 10:05:49;;;;;;;;;11.75;11.00;;;;;20.27;40.93;101881.97;5074372;27;45523;-72
2023/05/02 10:08:15;;;;;;;;;14.25;12.75;;;;;20.26;41.41;101877.56;5080719;27;45628;-72
2023/05/02 10:10:49;;;;;;;;;13.25;10.75;;;;;20.26;41.01;101872.25;5075971;27;73152;-72
2023/05/02 10:13:16;;;;;;;;;15.25;10.75;;;;;20.28;41.24;101872.19;5080882;27;45858;-72
2023/05/02 10:15:42;;;;;;;;;10.75;10.25;;;;;20.27;40.85;101875.75;5078007;27;46959;-72
2023/05/02 10:18:13;;;;;;;;;13.25;12.00;;;;;20.27;41.28;101871.31;5079300;27;45344;-72
2023/05/02 10:20:43;;;;;;;;;12.75;11.25;;;;;20.27;41.37;101883.75;5078439;27;45508;-72
2023/05/02 10:23:09;;;;;;;;;12.50;11.00;;;;;20.28;41.28;101880.16;5080835;27;45483;-72
2023/05/02 10:25:35;;;;;;;;;16.75;13.75;;;;;20.27;41.19;101875.75;5080820;27;45625;-72
2023/05/02 10:28:02;;;;;;;;;17.75;13.00;;;;;20.28;41.14;101878.34;5081686;27;45299;-72
2023/05/02 10:30:29;;;;;;;;;15.00;14.00;;;;;20.28;41.35;101869.53;5072538;27;45363;-72
2023/05/02 10:32:58;;;;;;;;;12.00;11.75;;;;;20.27;40.91;101868.66;5073468;27;45247;-72
2023/05/02 10:35:25;;;;;;;;;10.00;9.50;;;;;20.28;41.13;101870.38;5056557;28;45447;-72
2023/05/02 10:37:51;;;;;;;;;12.25;11.75;;;;;20.27;41.32;101870.44;5082827;27;45399;-72
2023/05/02 10:40:17;;;;;;;;;14.50;12.75;;;;;20.29;41.10;101865.91;5062150;28;46875;-72
2023/05/02 10:42:45;;;;;;;;;11.75;11.00;;;;;20.30;41.40;101875.63;5080263;28;70679;-72
2023/05/02 10:45:34;;;;;;;;;10.00;10.00;;;;;20.30;40.96;101875.63;5074717;27;45552;-72
2023/05/02 10:48:13;;;;;;;;;12.25;11.25;;;;;20.30;41.16;101879.13;5091082;27;45516;-72
2023/05/02 10:51:05;;;;;;;;;12.50;11.25;;;;;20.31;41.05;101882.66;5070400;27;45580;-72
2023/05/02 10:53:35;;;;;;;;;11.00;10.25;;;;;20.30;41.45;101879.13;5053344;27;69751;-72
2023/05/02 10:56:08;;;;;;;;;15.50;13.00;;;;;20.30;41.09;101888.91;5065761;27;45338;-72
2023/05/02 10:58:33;;;;;;;;;11.25;11.25;;;;;20.30;41.07;101880.94;5057939;28;45201;-71
2023/05/02 11:01:38;;;;;;;;;14.50;12.50;;;;;20.32;41.49;101881.72;5079043;27;46224;-72
2023/05/02 11:04:08;;;;;;;;;12.25;11.75;;;;;20.32;40.90;101879.06;5060132;28;45287;-72
2023/05/02 11:06:56;;;;;;;;;13.00;12.00;;;;;20.31;41.40;101882.66;5053907;28;45414;-72
2023/05/02 11:09:22;;;;;;;;;14.75;11.25;;;;;20.32;41.10;101876.41;5070845;27;45473;-72
2023/05/02 11:11:49;;;;;;;;;11.25;11.25;;;;;20.31;41.37;101874.69;5078481;27;46243;-72
2023/05/02 11:14:29;;;;;;;;;16.75;11.75;;;;;20.34;41.17;101886.97;5075542;27;45580;-72
2023/05/02 11:16:58;;;;;;;;;14.50;11.00;;;;;20.32;41.18;101879.06;5073820;27;45439;-72
2023/05/02 11:19:24;;;;;;;;;10.75;10.50;;;;;20.32;40.94;101872.88;5081543;27;45224;-72
2023/05/02 11:21:52;;;;;;;;;11.25;10.00;;;;;20.32;41.31;101865.75;5056071;28;48320;-72
2023/05/02 11:24:37;;;;;;;;;11.75;11.25;;;;;20.33;41.30;101870.16;5075371;27;45799;-72